Time,TemperatureF,DewpointF,PressureIn,WindDirection,WindDirectionDegrees,WindSpeedMPH,WindSpeedGustMPH,Humidity,HourlyPrecipIn,Conditions,Clouds,dailyrainin,SoftwareType,DateUTC
2013-04-13 00:07:00,70.3,66.0,29.88,SSW,205,1.0,2.0,87,0.00,,,0.00,weatherlink.com 1.10,2013-04-13 04:07:00,
2013-04-13 00:22:00,71.0,66.0,29.88,SSW,205,3.0,5.0,85,0.00,,,0.00,weatherlink.com 1.10,2013-04-13 04:22:00,
2013-04-13 00:37:00,72.0,67.0,29.88,SSW,205,0.0,5.0,84,0.00,,,0.00,weatherlink.com 1.10,2013-04-13 04:37:00,
2013-04-13 00:52:00,72.4,67.0,29.88,SSW,205,0.0,5.0,83,0.00,,,0.00,weatherlink.com 1.10,2013-04-13 04:52:00,
2013-04-13 01:07:00,72.7,67.0,29.89,SSW,205,1.0,4.0,83,0.00,,,0.00,weatherlink.com 1.10,2013-04-13 05:07:00,
2013-04-13 01:22:00,72.9,68.0,29.89,West,271,1.0,11.0,85,0.00,,,0.00,weatherlink.com 1.10,2013-04-13 05:22:00,
2013-04-13 01:36:00,72.0,68.0,29.89,NNW,331,1.0,5.0,86,0.00,,,0.00,weatherlink.com 1.10,2013-04-13 05:36:00,
2013-04-13 01:51:00,71.4,67.0,29.89,NW,322,0.0,6.0,86,0.00,,,0.00,weatherlink.com 1.10,2013-04-13 05:51:00,
2013-04-13 02:06:00,71.2,67.0,29.89,NW,322,3.0,4.0,87,0.00,,,0.00,weatherlink.com 1.10,2013-04-13 06:06:00,
2013-04-13 02:21:00,71.2,67.0,29.89,NW,322,0.0,4.0,87,0.00,,,0.00,weatherlink.com 1.10,2013-04-13 06:21:00,
2013-04-13 02:36:00,71.2,67.0,29.89,NW,322,0.0,2.0,87,0.00,,,0.00,weatherlink.com 1.10,2013-04-13 06:36:00,
2013-04-13 02:51:00,71.2,67.0,29.88,NW,322,0.0,3.0,87,0.00,,,0.00,weatherlink.com 1.10,2013-04-13 06:51:00,
2013-04-13 03:06:00,71.2,67.0,29.88,NW,322,0.0,2.0,87,0.00,,,0.00,weatherlink.com 1.10,2013-04-13 07:06:00,
2013-04-13 03:21:00,71.2,67.0,29.88,NW,322,3.0,4.0,87,0.00,,,0.00,weatherlink.com 1.10,2013-04-13 07:21:00,
2013-04-13 03:51:00,71.5,67.0,29.88,NW,305,1.0,5.0,86,0.00,,,0.00,weatherlink.com 1.10,2013-04-13 07:51:00,
2013-04-13 04:06:00,71.3,67.0,29.88,NW,306,2.0,6.0,86,0.00,,,0.00,weatherlink.com 1.10,2013-04-13 08:06:00,
2013-04-13 04:21:00,70.9,67.0,29.88,NW,306,3.0,5.0,87,0.00,,,0.00,weatherlink.com 1.10,2013-04-13 08:21:00,
2013-04-13 04:51:00,70.6,65.0,29.89,NNW,328,3.0,10.0,82,0.00,,,0.00,weatherlink.com 1.10,2013-04-13 08:51:00,
2013-04-13 05:21:00,69.5,61.0,29.90,WNW,288,1.0,11.0,73,0.00,,,0.00,weatherlink.com 1.10,2013-04-13 09:21:00,
2013-04-13 05:37:00,68.7,57.0,29.91,NNW,345,3.0,10.0,66,0.00,,,0.00,weatherlink.com 1.10,2013-04-13 09:37:00,
2013-04-13 05:52:00,67.7,54.0,29.91,NNE,19,3.0,8.0,62,0.00,,,0.00,weatherlink.com 1.10,2013-04-13 09:52:00,
2013-04-13 06:22:00,66.3,55.0,29.92,NNE,24,6.0,10.0,67,0.00,,,0.00,weatherlink.com 1.10,2013-04-13 10:22:00,
2013-04-13 06:37:00,65.9,54.0,29.93,North,350,2.0,10.0,66,0.00,,,0.00,weatherlink.com 1.10,2013-04-13 10:37:00,
2013-04-13 06:52:00,64.7,54.0,29.93,North,350,0.0,6.0,69,0.00,,,0.00,weatherlink.com 1.10,2013-04-13 10:52:00,
2013-04-13 07:22:00,63.0,54.0,29.94,North,360,2.0,6.0,73,0.00,,,0.00,weatherlink.com 1.10,2013-04-13 11:22:00,
2013-04-13 07:52:00,62.7,54.0,29.95,NE,40,2.0,6.0,72,0.00,,,0.00,weatherlink.com 1.10,2013-04-13 11:52:00,
2013-04-13 08:07:00,62.9,55.0,29.96,NE,40,0.0,5.0,74,0.00,,,0.00,weatherlink.com 1.10,2013-04-13 12:07:00,
2013-04-13 08:22:00,63.4,55.0,29.98,NE,40,0.0,4.0,73,0.00,,,0.00,weatherlink.com 1.10,2013-04-13 12:22:00,
2013-04-13 08:37:00,63.9,54.0,29.98,North,11,4.0,8.0,70,0.00,,,0.00,weatherlink.com 1.10,2013-04-13 12:37:00,
2013-04-13 09:22:00,67.5,53.0,30.00,NNE,21,7.0,9.0,60,0.00,,,0.00,weatherlink.com 1.10,2013-04-13 13:22:00,
2013-04-13 09:52:00,69.0,53.0,30.00,North,11,5.0,11.0,58,0.00,,,0.00,weatherlink.com 1.10,2013-04-13 13:52:00,
2013-04-13 10:07:00,71.2,55.0,30.00,NNE,16,3.0,9.0,56,0.00,,,0.00,weatherlink.com 1.10,2013-04-13 14:07:00,
2013-04-13 10:22:00,72.5,55.0,30.00,NW,319,4.0,11.0,54,0.00,,,0.00,weatherlink.com 1.10,2013-04-13 14:22:00,
2013-04-13 10:37:00,73.3,53.0,30.00,NE,37,13.0,13.0,50,0.00,,,0.00,weatherlink.com 1.10,2013-04-13 14:37:00,
2013-04-13 10:52:00,74.6,54.0,30.01,NNW,338,8.0,11.0,49,0.00,,,0.00,weatherlink.com 1.10,2013-04-13 14:52:00,
2013-04-13 11:07:00,75.9,55.0,30.01,North,350,0.0,11.0,49,0.00,,,0.00,weatherlink.com 1.10,2013-04-13 15:07:00,
2013-04-13 11:22:00,75.1,52.0,30.02,NNE,21,5.0,10.0,45,0.00,,,0.00,weatherlink.com 1.10,2013-04-13 15:22:00,
2013-04-13 11:37:00,76.5,54.0,30.02,NNE,30,5.0,11.0,45,0.00,,,0.00,weatherlink.com 1.10,2013-04-13 15:37:00,
2013-04-13 11:53:00,76.9,52.0,30.02,NE,42,1.0,9.0,42,0.00,,,0.00,weatherlink.com 1.10,2013-04-13 15:53:00,
2013-04-13 12:08:00,77.5,55.0,30.01,NNE,16,1.0,5.0,46,0.00,,,0.00,weatherlink.com 1.10,2013-04-13 16:08:00,
2013-04-13 12:23:00,78.4,53.0,30.01,WNW,298,2.0,8.0,42,0.00,,,0.00,weatherlink.com 1.10,2013-04-13 16:23:00,
2013-04-13 12:38:00,80.7,55.0,30.00,SSW,211,1.0,6.0,42,0.00,,,0.00,weatherlink.com 1.10,2013-04-13 16:38:00,
2013-04-13 12:53:00,80.8,56.0,29.99,West,269,0.0,9.0,42,0.00,,,0.00,weatherlink.com 1.10,2013-04-13 16:53:00,
2013-04-13 13:08:00,79.9,54.0,29.99,NW,304,1.0,9.0,41,0.00,,,0.00,weatherlink.com 1.10,2013-04-13 17:08:00,
2013-04-13 13:23:00,80.9,56.0,29.99,WNW,294,5.0,8.0,43,0.00,,,0.00,weatherlink.com 1.10,2013-04-13 17:23:00,
2013-04-13 13:38:00,79.3,55.0,29.98,South,178,4.0,15.0,44,0.00,,,0.00,weatherlink.com 1.10,2013-04-13 17:38:00,
2013-04-13 13:53:00,76.3,54.0,29.99,East,92,4.0,8.0,46,0.00,,,0.00,weatherlink.com 1.10,2013-04-13 17:53:00,
2013-04-13 14:08:00,75.2,53.0,29.98,ENE,61,6.0,8.0,46,0.00,,,0.00,weatherlink.com 1.10,2013-04-13 18:08:00,
2013-04-13 14:38:00,75.7,52.0,29.97,East,92,3.0,8.0,44,0.00,,,0.00,weatherlink.com 1.10,2013-04-13 18:38:00,
2013-04-13 14:54:00,76.5,54.0,29.96,ESE,115,2.0,7.0,46,0.00,,,0.00,weatherlink.com 1.10,2013-04-13 18:54:00,
2013-04-13 15:08:00,77.5,57.0,29.96,East,96,7.0,9.0,49,0.00,,,0.00,weatherlink.com 1.10,2013-04-13 19:08:00,
2013-04-13 15:23:00,78.7,54.0,29.95,ENE,73,0.0,7.0,42,0.00,,,0.00,weatherlink.com 1.10,2013-04-13 19:23:00,
2013-04-13 15:38:00,77.6,56.0,29.94,East,80,0.0,6.0,48,0.00,,,0.00,weatherlink.com 1.10,2013-04-13 19:38:00,
2013-04-13 15:53:00,77.0,56.0,29.94,East,80,3.0,8.0,49,0.00,,,0.00,weatherlink.com 1.10,2013-04-13 19:53:00,
2013-04-13 16:08:00,76.2,54.0,29.93,ESE,113,0.0,9.0,46,0.00,,,0.00,weatherlink.com 1.10,2013-04-13 20:08:00,
2013-04-13 16:23:00,76.4,57.0,29.93,ESE,119,1.0,8.0,51,0.00,,,0.00,weatherlink.com 1.10,2013-04-13 20:23:00,
2013-04-13 16:38:00,75.8,55.0,29.92,East,101,4.0,10.0,49,0.00,,,0.00,weatherlink.com 1.10,2013-04-13 20:38:00,
2013-04-13 16:53:00,75.9,55.0,29.92,East,96,1.0,8.0,49,0.00,,,0.00,weatherlink.com 1.10,2013-04-13 20:53:00,
2013-04-13 17:08:00,76.2,57.0,29.93,ESE,109,3.0,7.0,52,0.00,,,0.00,weatherlink.com 1.10,2013-04-13 21:08:00,
2013-04-13 17:23:00,77.1,56.0,29.93,ESE,117,0.0,4.0,48,0.00,,,0.00,weatherlink.com 1.10,2013-04-13 21:23:00,
2013-04-13 17:38:00,76.9,57.0,29.93,ESE,119,2.0,7.0,50,0.00,,,0.00,weatherlink.com 1.10,2013-04-13 21:38:00,
2013-04-13 17:54:00,76.1,58.0,29.93,East,93,2.0,6.0,53,0.00,,,0.00,weatherlink.com 1.10,2013-04-13 21:54:00,
2013-04-13 18:08:00,75.3,56.0,29.93,East,86,4.0,8.0,52,0.00,,,0.00,weatherlink.com 1.10,2013-04-13 22:08:00,
2013-04-13 18:23:00,73.6,57.0,29.94,SE,126,3.0,9.0,56,0.00,,,0.00,weatherlink.com 1.10,2013-04-13 22:23:00,
2013-04-13 18:38:00,72.5,56.0,29.94,SE,140,2.0,9.0,56,0.00,,,0.00,weatherlink.com 1.10,2013-04-13 22:38:00,
2013-04-13 18:53:00,72.0,56.0,29.94,East,92,0.0,6.0,58,0.00,,,0.00,weatherlink.com 1.10,2013-04-13 22:53:00,
2013-04-13 19:08:00,70.2,56.0,29.95,East,96,2.0,7.0,61,0.00,,,0.00,weatherlink.com 1.10,2013-04-13 23:08:00,
2013-04-13 19:23:00,68.5,57.0,29.95,East,96,0.0,7.0,67,0.00,,,0.00,weatherlink.com 1.10,2013-04-13 23:23:00,
2013-04-13 19:38:00,67.2,57.0,29.96,East,96,1.0,2.0,69,0.00,,,0.00,weatherlink.com 1.10,2013-04-13 23:38:00,
2013-04-13 19:53:00,66.2,57.0,29.96,East,96,0.0,3.0,73,0.00,,,0.00,weatherlink.com 1.10,2013-04-13 23:53:00,
2013-04-13 20:08:00,64.9,57.0,29.97,East,96,0.0,1.0,76,0.00,,,0.00,weatherlink.com 1.10,2013-04-14 00:08:00,
2013-04-13 20:23:00,63.3,57.0,29.97,East,96,0.0,0.0,79,0.00,,,0.00,weatherlink.com 1.10,2013-04-14 00:23:00,
2013-04-13 20:38:00,62.4,57.0,29.97,East,96,0.0,2.0,82,0.00,,,0.00,weatherlink.com 1.10,2013-04-14 00:38:00,
2013-04-13 20:53:00,61.8,57.0,29.97,East,96,0.0,2.0,84,0.00,,,0.00,weatherlink.com 1.10,2013-04-14 00:53:00,
2013-04-13 21:08:00,61.1,57.0,29.97,East,96,0.0,2.0,86,0.00,,,0.00,weatherlink.com 1.10,2013-04-14 01:08:00,
2013-04-13 21:23:00,60.6,57.0,29.97,East,96,0.0,3.0,87,0.00,,,0.00,weatherlink.com 1.10,2013-04-14 01:23:00,
2013-04-13 21:38:00,60.1,57.0,29.98,East,96,0.0,0.0,88,0.00,,,0.00,weatherlink.com 1.10,2013-04-14 01:38:00,
2013-04-13 21:53:00,60.0,57.0,29.98,East,96,0.0,1.0,89,0.00,,,0.00,weatherlink.com 1.10,2013-04-14 01:53:00,
2013-04-13 22:08:00,60.0,57.0,29.99,East,96,0.0,3.0,89,0.00,,,0.00,weatherlink.com 1.10,2013-04-14 02:08:00,
2013-04-13 22:23:00,60.0,57.0,30.00,East,96,0.0,2.0,89,0.00,,,0.00,weatherlink.com 1.10,2013-04-14 02:23:00,
2013-04-13 22:38:00,59.8,57.0,30.00,East,96,0.0,2.0,89,0.00,,,0.00,weatherlink.com 1.10,2013-04-14 02:38:00,
2013-04-13 22:53:00,59.7,57.0,30.01,East,96,0.0,0.0,90,0.00,,,0.00,weatherlink.com 1.10,2013-04-14 02:53:00,
2013-04-13 23:09:00,59.5,57.0,30.00,East,96,0.0,0.0,90,0.00,,,0.00,weatherlink.com 1.10,2013-04-14 03:09:00,
2013-04-13 23:23:00,58.6,56.0,30.02,East,96,0.0,0.0,90,0.00,,,0.00,weatherlink.com 1.10,2013-04-14 03:23:00,
2013-04-13 23:38:00,58.0,55.0,30.02,East,96,0.0,0.0,90,0.00,,,0.00,weatherlink.com 1.10,2013-04-14 03:38:00,
2013-04-13 23:53:00,57.4,55.0,30.02,East,96,0.0,0.0,91,0.00,,,0.00,weatherlink.com 1.10,2013-04-14 03:53:00,